createdAt,value
2023-05-19T00:00:02.333Z,53.0714
2023-05-19T00:01:02.350Z,53.1429
2023-05-19T00:02:02.391Z,53.2143
2023-05-19T00:03:02.513Z,53.2143
2023-05-19T00:04:02.454Z,53.2143
2023-05-19T00:05:02.413Z,53.1429
2023-05-19T00:06:02.456Z,53.0714
2023-05-19T00:07:02.449Z,53
2023-05-19T00:08:02.448Z,52.9286
2023-05-19T00:09:02.468Z,52.8571
2023-05-19T00:10:02.466Z,52.5
2023-05-19T00:11:02.489Z,52.4286
2023-05-19T00:12:02.531Z,52.5
2023-05-19T00:13:02.542Z,52.5
2023-05-19T00:14:02.585Z,52.3571
2023-05-19T00:15:02.609Z,52.2857
2023-05-19T00:16:02.693Z,52.2857
2023-05-19T00:17:02.646Z,52.2857
2023-05-19T00:18:02.715Z,52.2857
2023-05-19T00:19:02.726Z,52.1429
2023-05-19T00:20:02.704Z,52.1429
2023-05-19T00:21:02.738Z,52.1429
2023-05-19T00:22:02.781Z,52
2023-05-19T00:23:02.784Z,52
2023-05-19T00:24:02.801Z,52.0714
2023-05-19T00:25:02.826Z,52.0714
2023-05-19T00:26:02.850Z,52.0714
2023-05-19T00:27:02.880Z,52
2023-05-19T00:28:02.891Z,51.9286
2023-05-19T00:29:02.903Z,52
2023-05-19T00:30:02.938Z,51.9286
2023-05-19T00:31:02.935Z,51.9286
2023-05-19T00:32:02.989Z,52
2023-05-19T00:33:02.999Z,52.0714
2023-05-19T00:34:02.980Z,52
2023-05-19T00:35:03.002Z,52
2023-05-19T00:36:02.989Z,52.0714
2023-05-19T00:37:03.010Z,52.1429
2023-05-19T00:38:03.027Z,52.0714
2023-05-19T00:39:03.092Z,52.1429
2023-05-19T00:40:03.080Z,52.1429
2023-05-19T00:41:02.172Z,52.0714
2023-05-19T00:42:02.107Z,52.0714
2023-05-19T00:43:02.141Z,52.0714
2023-05-19T00:44:02.223Z,52.1429
2023-05-19T00:45:02.179Z,52.2143
2023-05-19T00:46:02.269Z,52.2143
2023-05-19T00:47:02.644Z,52.1429
2023-05-19T00:48:02.393Z,52.0714
2023-05-19T00:49:02.268Z,52.0714
2023-05-19T00:50:02.292Z,52
2023-05-19T00:51:02.561Z,52
2023-05-19T00:52:02.337Z,52.0714
2023-05-19T00:53:02.365Z,52.1429
2023-05-19T00:54:02.395Z,52.1429
2023-05-19T00:55:02.369Z,52.2143
2023-05-19T00:56:02.446Z,52.2857
2023-05-19T00:57:02.378Z,52.2143
2023-05-19T00:58:02.486Z,52.2143
2023-05-19T00:59:02.399Z,52.2857
2023-05-19T01:00:02.498Z,52.3571
2023-05-19T01:01:02.474Z,52.3571
2023-05-19T01:02:02.478Z,52.3571
2023-05-19T01:03:02.674Z,52.4286
2023-05-19T01:04:02.720Z,52.3571
2023-05-19T01:05:02.566Z,52.4286
2023-05-19T01:06:02.592Z,52.5
2023-05-19T01:07:02.624Z,52.5714
2023-05-19T01:08:02.632Z,52.6429
2023-05-19T01:09:02.653Z,52.7143
2023-05-19T01:10:02.683Z,52.7857
2023-05-19T01:11:02.705Z,52.7143
2023-05-19T01:12:02.733Z,52.7857
2023-05-19T01:13:02.735Z,52.8571
2023-05-19T01:14:02.763Z,52.9286
2023-05-19T01:15:02.806Z,52.9286
2023-05-19T01:16:02.909Z,52.9286
2023-05-19T01:17:02.849Z,52.9286
2023-05-19T01:18:02.890Z,53
2023-05-19T01:19:03.053Z,53.4286
2023-05-19T01:20:02.892Z,53.2143
2023-05-19T01:21:02.917Z,53.2143
2023-05-19T01:22:02.924Z,53.1429
2023-05-19T01:23:02.941Z,53.2143
2023-05-19T01:24:02.941Z,53.2857
2023-05-19T01:25:02.955Z,53.5714
2023-05-19T01:26:02.956Z,53.7857
2023-05-19T01:27:02.985Z,53.7143
2023-05-19T01:28:03.019Z,53.6429
2023-05-19T01:29:03.049Z,53.5714
2023-05-19T01:30:03.080Z,53.6429
2023-05-19T01:31:02.098Z,53.5714
2023-05-19T01:32:02.217Z,53.5714
2023-05-19T01:33:02.311Z,53.7143
2023-05-19T01:34:02.181Z,53.7857
2023-05-19T01:35:02.203Z,53.7857
2023-05-19T01:36:02.262Z,53.7857
2023-05-19T01:37:02.273Z,53.7857
2023-05-19T01:38:02.280Z,53.7857
2023-05-19T01:39:02.304Z,54.1429
2023-05-19T01:40:02.317Z,54.3571
2023-05-19T01:41:02.339Z,54.5714
2023-05-19T01:42:02.356Z,54.7857
2023-05-19T01:43:02.401Z,54.8571
2023-05-19T01:44:02.414Z,54.8571
2023-05-19T01:45:02.439Z,54.8571
2023-05-19T01:46:02.495Z,54.9286
2023-05-19T01:47:02.483Z,54.8571
2023-05-19T01:48:02.538Z,54.7143
2023-05-19T01:49:02.530Z,54.6429
2023-05-19T01:50:02.552Z,54.7143
2023-05-19T01:51:02.564Z,54.7857
2023-05-19T01:52:02.575Z,54.8571
2023-05-19T01:53:02.601Z,54.8571
2023-05-19T01:54:02.617Z,54.9286
2023-05-19T01:55:02.619Z,55
2023-05-19T01:56:02.625Z,55.0714
2023-05-19T01:57:02.640Z,55.1429
2023-05-19T01:58:02.654Z,55.2857
2023-05-19T01:59:02.694Z,55.5
2023-05-19T02:00:02.729Z,55.5714
2023-05-19T02:01:02.752Z,55.6429
2023-05-19T02:02:02.749Z,55.7143
2023-05-19T02:03:02.806Z,55.7143
2023-05-19T02:04:02.825Z,55.8571
2023-05-19T02:05:02.813Z,56
2023-05-19T02:06:02.837Z,56.0714
2023-05-19T02:07:02.876Z,56.0714
2023-05-19T02:08:02.889Z,56.2143
2023-05-19T02:09:02.917Z,56.2143
2023-05-19T02:10:02.917Z,56.2857
2023-05-19T02:11:02.948Z,56.2857
2023-05-19T02:12:02.962Z,56.5
2023-05-19T02:13:02.979Z,56.5714
2023-05-19T02:14:03.005Z,56.5714
2023-05-19T02:15:03.009Z,56.5714
2023-05-19T02:16:03.128Z,56.5714
2023-05-19T02:17:03.023Z,56.6429
2023-05-19T02:18:03.149Z,56.5714
2023-05-19T02:19:03.131Z,56.7143
2023-05-19T02:20:03.050Z,56.9286
2023-05-19T02:21:03.070Z,57
2023-05-19T02:22:02.102Z,57.0714
2023-05-19T02:23:02.167Z,57.0714
2023-05-19T02:24:02.164Z,57.1429
2023-05-19T02:25:02.180Z,57.1429
2023-05-19T02:26:02.218Z,57.2143
2023-05-19T02:27:02.246Z,57.2857
2023-05-19T02:28:02.266Z,57.3571
2023-05-19T02:29:02.297Z,57.3571
2023-05-19T02:30:02.314Z,57.3571
2023-05-19T02:31:02.339Z,57.3571
2023-05-19T02:32:02.438Z,57.3571
2023-05-19T02:33:02.417Z,57.4286
2023-05-19T02:34:02.425Z,57.4286
2023-05-19T02:35:02.425Z,57.4286
2023-05-19T02:36:02.447Z,57.3571
2023-05-19T02:37:02.470Z,57.5
2023-05-19T02:38:02.496Z,57.4286
2023-05-19T02:39:02.512Z,57.5
2023-05-19T02:40:02.543Z,57.5
2023-05-19T02:41:02.573Z,57.5714
2023-05-19T02:42:02.560Z,57.6429
2023-05-19T02:43:02.574Z,57.7143
2023-05-19T02:44:02.598Z,57.7143
2023-05-19T02:45:02.616Z,57.6429
2023-05-19T02:46:02.638Z,57.6429
2023-05-19T02:47:02.627Z,57.6429
2023-05-19T02:48:02.684Z,57.6429
2023-05-19T02:49:02.636Z,57.7143
2023-05-19T02:50:02.648Z,57.7143
2023-05-19T02:51:02.672Z,57.7143
2023-05-19T02:52:02.724Z,57.6429
2023-05-19T02:53:02.724Z,57.5714
2023-05-19T02:54:02.741Z,57.6429
2023-05-19T02:55:02.783Z,57.6429
2023-05-19T02:56:02.803Z,57.6429
2023-05-19T02:57:02.862Z,57.7857
2023-05-19T02:58:02.891Z,57.8571
2023-05-19T02:59:02.892Z,57.9286
2023-05-19T03:00:02.903Z,58
2023-05-19T03:01:02.927Z,58
2023-05-19T03:02:03.037Z,58
2023-05-19T03:03:03.167Z,57.9286
2023-05-19T03:04:03.057Z,58
2023-05-19T03:05:03.039Z,58
2023-05-19T03:06:03.062Z,58.2143
2023-05-19T03:07:03.080Z,58.3571
2023-05-19T03:08:02.122Z,58.4286
2023-05-19T03:09:02.126Z,58.5
2023-05-19T03:10:02.137Z,58.4286
2023-05-19T03:11:02.156Z,58.5
2023-05-19T03:12:02.163Z,58.5714
2023-05-19T03:13:02.178Z,58.7143
2023-05-19T03:14:02.184Z,58.8571
2023-05-19T03:15:02.209Z,59
2023-05-19T03:16:02.217Z,59.1429
2023-05-19T03:17:02.274Z,59
2023-05-19T03:18:02.314Z,58.7143
2023-05-19T03:19:02.301Z,58.5
2023-05-19T03:20:02.277Z,58.2857
2023-05-19T03:21:02.306Z,58.2857
2023-05-19T03:22:02.326Z,58.1429
2023-05-19T03:23:02.364Z,58.0714
2023-05-19T03:24:02.412Z,58.0714
2023-05-19T03:25:02.425Z,58.2143
2023-05-19T03:26:02.440Z,58.1429
2023-05-19T03:27:02.499Z,58.2143
2023-05-19T03:28:02.500Z,58.3571
2023-05-19T03:29:02.514Z,58.3571
2023-05-19T03:30:04.944Z,58.5
2023-05-19T03:31:02.595Z,58.6429
2023-05-19T03:32:02.648Z,58.5714
2023-05-19T03:33:02.713Z,58.5714
2023-05-19T03:34:02.628Z,58.4286
2023-05-19T03:35:02.646Z,58.2857
2023-05-19T03:36:02.693Z,58.2143
2023-05-19T03:37:02.680Z,58.2143
2023-05-19T03:38:02.683Z,58.3571
2023-05-19T03:39:02.704Z,58.3571
2023-05-19T03:40:02.729Z,58.5
2023-05-19T03:41:02.725Z,58.5
2023-05-19T03:42:02.742Z,58.5
2023-05-19T03:43:02.752Z,58.7143
2023-05-19T03:44:02.763Z,58.6429
2023-05-19T03:45:02.776Z,58.5714
2023-05-19T03:46:02.868Z,58.5714
2023-05-19T03:47:02.841Z,58.5
2023-05-19T03:48:02.919Z,58.4286
2023-05-19T03:49:02.890Z,58.3571
2023-05-19T03:50:02.921Z,58.2857
2023-05-19T03:51:02.938Z,58.2143
2023-05-19T03:52:02.956Z,58.1429
2023-05-19T03:53:02.985Z,58
2023-05-19T03:54:02.998Z,58.0714
2023-05-19T03:55:03.026Z,58
2023-05-19T03:56:03.042Z,58
2023-05-19T03:57:03.059Z,57.9286
2023-05-19T03:58:03.070Z,58
2023-05-19T03:59:02.091Z,57.9286
2023-05-19T04:00:02.110Z,57.9286
2023-05-19T04:01:02.133Z,58.0714
2023-05-19T04:02:02.172Z,58.4286
2023-05-19T04:03:02.216Z,58.7143
2023-05-19T04:04:02.223Z,58.6429
2023-05-19T04:05:02.160Z,58.6429
2023-05-19T04:06:02.180Z,58.7857
2023-05-19T04:07:02.187Z,58.7857
2023-05-19T04:08:02.208Z,58.7857
2023-05-19T04:09:02.239Z,58.7857
2023-05-19T04:10:02.265Z,58.7143
2023-05-19T04:11:02.294Z,58.5714
2023-05-19T04:12:02.329Z,58.4286
2023-05-19T04:13:02.347Z,58.5
2023-05-19T04:14:02.367Z,58.4286
2023-05-19T04:15:02.388Z,58.6429
2023-05-19T04:16:02.474Z,58.7143
2023-05-19T04:17:02.429Z,58.6429
2023-05-19T04:18:02.509Z,58.5
2023-05-19T04:19:02.522Z,58.2857
2023-05-19T04:20:02.524Z,58.2143
2023-05-19T04:22:02.553Z,58.1429
2023-05-19T04:23:02.537Z,58.1429
2023-05-19T04:24:02.560Z,58
2023-05-19T04:25:02.578Z,57.9286
2023-05-19T04:26:02.613Z,57.8571
2023-05-19T04:27:02.676Z,57.7143
2023-05-19T04:28:02.610Z,57.7857
2023-05-19T04:29:02.614Z,58
2023-05-19T04:30:02.633Z,58.0714
2023-05-19T04:31:02.661Z,57.9286
2023-05-19T04:32:02.645Z,57.7143
2023-05-19T04:33:02.691Z,57.6429
2023-05-19T04:34:02.752Z,57.5
2023-05-19T04:35:02.718Z,57.4286
2023-05-19T04:36:02.741Z,57.5714
2023-05-19T04:37:02.780Z,57.3571
2023-05-19T04:38:02.790Z,57.4286
2023-05-19T04:39:02.826Z,57.5
2023-05-19T04:40:02.849Z,57.4286
2023-05-19T04:41:02.873Z,57.4286
2023-05-19T04:42:02.895Z,57.2857
2023-05-19T04:43:02.925Z,57.1429
2023-05-19T04:44:02.947Z,56.9286
2023-05-19T04:45:02.972Z,56.7857
2023-05-19T04:46:02.992Z,56.7143
2023-05-19T04:47:03.045Z,56.7857
2023-05-19T04:48:03.058Z,56.7857
2023-05-19T04:49:03.058Z,56.8571
2023-05-19T04:50:03.083Z,57.0714
2023-05-19T04:51:02.102Z,57
2023-05-19T04:52:02.115Z,56.9286
2023-05-19T04:53:03.633Z,56.8571
2023-05-19T04:54:02.414Z,56.6429
2023-05-19T04:55:05.431Z,56.4286
2023-05-19T04:57:02.248Z,56.0714
2023-05-19T04:58:02.214Z,55.5714
2023-05-19T04:59:02.237Z,55.3571
2023-05-19T05:00:02.229Z,55.5
2023-05-19T05:01:02.235Z,55.4286
2023-05-19T05:02:02.308Z,55.4286
2023-05-19T05:03:02.341Z,54.9286
2023-05-19T05:04:02.701Z,54.7857
2023-05-19T05:05:02.343Z,54.0714
2023-05-19T05:06:02.362Z,53.6429
2023-05-19T05:07:02.368Z,53.0714
2023-05-19T05:08:02.401Z,52.9286
2023-05-19T05:09:02.421Z,52.5714
2023-05-19T05:10:02.443Z,52.4286
2023-05-19T05:11:02.463Z,52.3571
2023-05-19T05:12:02.485Z,52.2143
2023-05-19T05:13:02.511Z,52.1429
2023-05-19T05:14:02.535Z,52.0714
2023-05-19T05:15:02.548Z,51.8571
2023-05-19T05:16:02.599Z,51.8571
2023-05-19T05:17:02.585Z,51.6429
2023-05-19T05:18:02.651Z,51.2143
2023-05-19T05:19:02.668Z,51.2857
2023-05-19T05:20:02.633Z,51.2143
2023-05-19T05:21:02.646Z,50.9286
2023-05-19T05:22:02.650Z,50.9286
2023-05-19T05:23:02.651Z,50.6429
2023-05-19T05:24:02.664Z,50.5714
2023-05-19T05:25:02.690Z,50.8571
2023-05-19T05:26:02.711Z,50.8571
2023-05-19T05:27:02.741Z,50.5714
2023-05-19T05:28:02.775Z,50.5714
2023-05-19T05:29:02.804Z,50.4286
2023-05-19T05:30:02.833Z,50.4286
2023-05-19T05:31:02.852Z,50.5
2023-05-19T05:32:02.910Z,50.2143
2023-05-19T05:33:03.077Z,50.5714
2023-05-19T05:34:02.932Z,50.9286
2023-05-19T05:35:02.963Z,50.8571
2023-05-19T05:36:02.981Z,50.5
2023-05-19T05:37:03.007Z,50.2857
2023-05-19T05:38:03.035Z,50.2857
2023-05-19T05:39:03.054Z,49.6429
2023-05-19T05:40:03.089Z,49.3571
2023-05-19T05:41:02.091Z,49.0714
2023-05-19T05:42:02.134Z,49.2857
2023-05-19T05:43:02.153Z,49.2143
2023-05-19T05:44:02.176Z,49.2857
2023-05-19T05:45:02.174Z,49.2857
2023-05-19T05:46:02.233Z,49.5714
2023-05-19T05:47:02.206Z,49.5714
2023-05-19T05:48:02.255Z,49.3571
2023-05-19T05:49:02.223Z,49.4286
2023-05-19T05:50:02.230Z,49.5
2023-05-19T05:51:02.239Z,49.5
2023-05-19T05:52:06.341Z,49.5
2023-05-19T05:53:02.283Z,49.2857
2023-05-19T05:54:02.311Z,49.4286
2023-05-19T05:55:02.350Z,48.7857
2023-05-19T05:56:02.387Z,48.3571
2023-05-19T05:57:02.405Z,47.9286
2023-05-19T05:58:02.445Z,47.3571
2023-05-19T05:59:02.448Z,46.7857
2023-05-19T06:00:02.525Z,46.3571
2023-05-19T06:01:02.497Z,45.7143
2023-05-19T06:02:02.586Z,44.7143
2023-05-19T06:03:02.698Z,43.8571
2023-05-19T06:04:02.593Z,43.3571
2023-05-19T06:05:02.664Z,42.9286
2023-05-19T06:06:02.685Z,42.5
2023-05-19T06:07:02.650Z,41.7143
2023-05-19T06:08:02.665Z,40.8571
2023-05-19T06:09:02.694Z,40.5714
2023-05-19T06:10:02.722Z,40.1429
2023-05-19T06:11:02.725Z,39.5714
2023-05-19T06:12:02.763Z,38.5714
2023-05-19T06:13:02.765Z,38.9286
2023-05-19T06:14:02.799Z,39
2023-05-19T06:15:02.831Z,38.2857
2023-05-19T06:16:02.848Z,37.9286
2023-05-19T06:17:02.825Z,37.6429
2023-05-19T06:18:02.884Z,37.2143
2023-05-19T06:19:02.898Z,36.7857
2023-05-19T06:20:02.861Z,35.9286
2023-05-19T06:21:02.873Z,34.5
2023-05-19T06:22:02.873Z,34
2023-05-19T06:23:02.907Z,33.4286
2023-05-19T06:24:02.911Z,32.7857
2023-05-19T06:25:02.944Z,32.5
2023-05-19T06:26:02.955Z,32
2023-05-19T06:27:02.984Z,31.6429
2023-05-19T06:28:03.017Z,32
2023-05-19T06:29:03.042Z,30.5
2023-05-19T06:30:03.079Z,30.5714
2023-05-19T06:31:03.099Z,30.3571
2023-05-19T06:32:02.117Z,30.8571
2023-05-19T06:33:02.185Z,31.5714
2023-05-19T06:34:02.168Z,31.6429
2023-05-19T06:35:02.176Z,32.9286
2023-05-19T06:36:02.211Z,32.5
2023-05-19T06:37:02.282Z,32.5714
2023-05-19T06:38:02.254Z,32.2857
2023-05-19T06:39:02.881Z,31.9286
2023-05-19T06:40:02.311Z,31.6429
2023-05-19T06:41:02.289Z,31.5714
2023-05-19T06:42:02.299Z,31.7857
2023-05-19T06:43:02.320Z,32
2023-05-19T06:44:02.315Z,32.2143
2023-05-19T06:45:02.361Z,31.7857
2023-05-19T06:46:02.336Z,31.6429
2023-05-19T06:47:02.405Z,31.6429
2023-05-19T06:48:02.408Z,31.2143
2023-05-19T06:49:02.421Z,30.7143
2023-05-19T06:50:02.425Z,29.9286
2023-05-19T06:51:02.469Z,29.5
2023-05-19T06:52:02.472Z,29.5
2023-05-19T06:53:02.494Z,29.1429
2023-05-19T06:54:02.540Z,28.9286
2023-05-19T06:55:02.549Z,28.6429
2023-05-19T06:56:02.583Z,28.2857
2023-05-19T06:57:02.583Z,27.5
2023-05-19T06:58:02.617Z,27.4286
2023-05-19T06:59:02.630Z,27.2143
2023-05-19T07:00:02.646Z,26.9286
2023-05-19T07:01:02.671Z,25.7143
2023-05-19T07:02:02.705Z,25.8571
2023-05-19T07:03:02.767Z,25
2023-05-19T07:04:02.736Z,25.2143
2023-05-19T07:05:02.738Z,26.2857
2023-05-19T07:06:03.015Z,25.0714
2023-05-19T07:07:02.758Z,24.7143
2023-05-19T07:08:02.760Z,24.2857
2023-05-19T07:09:02.757Z,23.5
2023-05-19T07:10:02.801Z,23.1429
2023-05-19T07:11:02.799Z,23.2143
2023-05-19T07:12:02.855Z,23.4286
2023-05-19T07:13:02.851Z,23.7143
2023-05-19T07:14:02.880Z,23.1429
2023-05-19T07:15:02.898Z,23.2143
2023-05-19T07:16:02.949Z,23.3571
2023-05-19T07:17:02.958Z,22.7143
2023-05-19T07:18:03.035Z,22.5714
2023-05-19T07:19:03.073Z,21.9286
2023-05-19T07:20:03.030Z,22.0714
2023-05-19T07:21:03.065Z,21.6429
2023-05-19T07:22:03.076Z,21.9286
2023-05-19T07:23:02.101Z,22.0714
2023-05-19T07:24:02.145Z,21.5
2023-05-19T07:25:02.152Z,21.5
2023-05-19T07:26:02.162Z,21.3571
2023-05-19T07:27:02.213Z,21.1429
2023-05-19T07:28:02.210Z,20.7857
2023-05-19T07:29:02.236Z,20.7857
2023-05-19T07:30:02.242Z,20.2143
2023-05-19T07:31:02.268Z,20.2857
2023-05-19T07:32:02.337Z,20.7143
2023-05-19T07:33:02.289Z,20.9286
2023-05-19T07:34:02.276Z,20.8571
2023-05-19T07:35:02.308Z,20.4286
2023-05-19T07:36:02.292Z,20.5714
2023-05-19T07:37:02.308Z,20.5
2023-05-19T07:38:02.309Z,20.5
2023-05-19T07:39:02.381Z,20.5
2023-05-19T07:40:02.438Z,20.7857
2023-05-19T07:41:02.416Z,20.5714
2023-05-19T07:42:02.442Z,21.4286
2023-05-19T07:43:02.460Z,20.4286
2023-05-19T07:44:02.494Z,20.5714
2023-05-19T07:45:02.537Z,19.9286
2023-05-19T07:46:02.592Z,19.6429
2023-05-19T07:47:02.584Z,20.0714
2023-05-19T07:48:02.632Z,19.6429
2023-05-19T07:49:02.627Z,20.3571
2023-05-19T07:50:02.662Z,20.8571
2023-05-19T07:51:02.683Z,20.9286
2023-05-19T07:52:02.694Z,21.1429
2023-05-19T07:53:02.713Z,21.0714
2023-05-19T07:54:02.743Z,21.5714
2023-05-19T07:55:02.751Z,22.3571
2023-05-19T07:56:02.771Z,22.2143
2023-05-19T07:57:02.791Z,22.5714
2023-05-19T07:58:02.813Z,22.9286
2023-05-19T07:59:02.825Z,23.2143
2023-05-19T08:00:02.845Z,23.8571
2023-05-19T08:01:02.856Z,24.8571
2023-05-19T08:02:02.917Z,25
2023-05-19T08:03:03.045Z,24.7143
2023-05-19T08:04:02.966Z,25
2023-05-19T08:05:02.922Z,25.5
2023-05-19T08:06:02.905Z,25.6429
2023-05-19T08:07:02.920Z,25.6429
2023-05-19T08:08:02.965Z,26.5714
2023-05-19T08:09:02.977Z,26.7857
2023-05-19T08:10:03.015Z,25.5714
2023-05-19T08:11:03.037Z,25.4286
2023-05-19T08:12:03.058Z,25.3571
2023-05-19T08:13:03.081Z,25.2143
2023-05-19T08:14:02.112Z,25.6429
2023-05-19T08:15:02.201Z,26
2023-05-19T08:16:02.267Z,25.6429
2023-05-19T08:17:02.185Z,25.1429
2023-05-19T08:18:02.338Z,24.9286
2023-05-19T08:19:02.252Z,25.7857
2023-05-19T08:20:02.262Z,25.8571
2023-05-19T08:21:02.295Z,25.7857
2023-05-19T08:22:02.300Z,25.8571
2023-05-19T08:23:02.327Z,26.2143
2023-05-19T08:24:02.362Z,26.4286
2023-05-19T08:25:02.392Z,26.6429
2023-05-19T08:26:02.386Z,27.5714
2023-05-19T08:27:02.401Z,27.1429
2023-05-19T08:28:02.413Z,27
2023-05-19T08:29:02.451Z,26.9286
2023-05-19T08:30:02.435Z,27.1429
2023-05-19T08:31:02.463Z,27.9286
2023-05-19T08:32:02.464Z,27.4286
2023-05-19T08:33:02.560Z,28.2143
2023-05-19T08:34:02.500Z,28
2023-05-19T08:35:02.527Z,27.1429
2023-05-19T08:36:02.537Z,27.3571
2023-05-19T08:37:02.564Z,27.6429
2023-05-19T08:38:02.609Z,27.5
2023-05-19T08:39:02.635Z,27.8571
2023-05-19T08:40:02.629Z,27.8571
2023-05-19T08:41:02.662Z,27.7143
2023-05-19T08:42:02.708Z,27.8571
2023-05-19T08:43:02.742Z,28.0714
2023-05-19T08:44:02.741Z,28.5714
2023-05-19T08:45:02.761Z,27.6429
2023-05-19T08:46:02.772Z,27.8571
2023-05-19T08:47:02.997Z,28.2857
2023-05-19T08:48:02.853Z,28.7857
2023-05-19T08:49:02.834Z,29.0714
2023-05-19T08:50:02.883Z,29.0714
2023-05-19T08:51:02.884Z,29.1429
2023-05-19T08:52:02.912Z,29.6429
2023-05-19T08:53:02.921Z,29.4286
2023-05-19T08:54:02.935Z,29.7143
2023-05-19T08:55:02.946Z,30.1429
2023-05-19T08:56:02.942Z,29.8571
2023-05-19T08:57:02.947Z,30.2143
2023-05-19T08:58:02.966Z,30.2857
2023-05-19T08:59:02.985Z,30.4286
2023-05-19T09:00:03.034Z,31.0714
2023-05-19T09:01:03.065Z,31.0714
2023-05-19T09:02:03.064Z,31.7857
2023-05-19T09:04:02.259Z,32.2143
2023-05-19T09:05:02.210Z,32.2857
2023-05-19T09:06:02.328Z,32.0714
2023-05-19T09:07:02.196Z,32.2857
2023-05-19T09:08:02.220Z,32.3571
2023-05-19T09:09:02.236Z,32.5714
2023-05-19T09:10:02.266Z,32.7857
2023-05-19T09:11:02.324Z,32.6429
2023-05-19T09:12:02.321Z,32.4286
2023-05-19T09:13:02.347Z,33.2143
2023-05-19T09:14:02.371Z,33.6429
2023-05-19T09:15:02.401Z,32.7143
2023-05-19T09:16:02.478Z,32.3571
2023-05-19T09:17:02.511Z,32.8571
2023-05-19T09:18:02.500Z,33.3571
2023-05-19T09:19:02.499Z,33.1429
2023-05-19T09:20:02.491Z,33.5
2023-05-19T09:21:02.712Z,33.6429
2023-05-19T09:22:02.519Z,33.5
2023-05-19T09:23:02.520Z,32.7857
2023-05-19T09:24:02.546Z,33.0714
2023-05-19T09:25:02.555Z,33.2857
2023-05-19T09:26:02.564Z,32.1429
2023-05-19T09:27:02.556Z,32
2023-05-19T09:28:02.591Z,32.4286
2023-05-19T09:29:02.607Z,32.0714
2023-05-19T09:30:02.643Z,32.0714
2023-05-19T09:31:02.675Z,32.1429
2023-05-19T09:32:02.705Z,32.4286
2023-05-19T09:33:02.780Z,32.0714
2023-05-19T09:34:02.736Z,32.4286
2023-05-19T09:35:02.765Z,32.7857
2023-05-19T09:36:02.788Z,32.2143
2023-05-19T09:37:02.815Z,32.7143
2023-05-19T09:38:02.838Z,32.5
2023-05-19T09:39:02.858Z,31.9286
2023-05-19T09:40:02.879Z,31.2143
2023-05-19T09:41:02.915Z,31.7143
2023-05-19T09:42:02.957Z,31.5714
2023-05-19T09:43:02.956Z,32.0714
2023-05-19T09:44:02.970Z,32.7857
2023-05-19T09:45:02.992Z,32.3571
2023-05-19T09:46:03.025Z,31.8571
2023-05-19T09:47:03.025Z,32.0714
2023-05-19T09:48:03.127Z,31.3571
2023-05-19T09:49:03.058Z,31.2857
2023-05-19T09:50:03.081Z,31.5714
2023-05-19T09:51:02.095Z,31.4286
2023-05-19T09:52:02.139Z,31.4286
2023-05-19T09:53:02.119Z,31.0714
2023-05-19T09:54:02.113Z,31.2143
2023-05-19T09:55:02.124Z,31.3571
2023-05-19T09:56:02.157Z,32
2023-05-19T09:57:02.192Z,31.9286
2023-05-19T09:58:02.202Z,31.2857
2023-05-19T09:59:02.269Z,32
2023-05-19T10:00:02.260Z,31
2023-05-19T10:01:02.375Z,31.1429
2023-05-19T10:02:02.563Z,31.2143
2023-05-19T10:03:02.350Z,31
2023-05-19T10:04:03.805Z,31.4286
2023-05-19T10:05:02.434Z,31.3571
2023-05-19T10:06:02.407Z,31.2857
2023-05-19T10:07:02.433Z,31.4286
2023-05-19T10:08:02.449Z,31.5
2023-05-19T10:09:02.458Z,31.5714
2023-05-19T10:10:02.482Z,31.5714
2023-05-19T10:11:02.505Z,31.7857
2023-05-19T10:12:02.517Z,31.3571
2023-05-19T10:13:02.543Z,31.2857
2023-05-19T10:14:02.550Z,31.6429
2023-05-19T10:15:02.574Z,31.5714
2023-05-19T10:16:02.932Z,31.5714
2023-05-19T10:17:02.704Z,31.8571
2023-05-19T10:18:02.683Z,31.3571
2023-05-19T10:19:02.692Z,31.6429
2023-05-19T10:20:02.617Z,31.7857
2023-05-19T10:21:02.638Z,31.9286
2023-05-19T10:22:02.652Z,31.7143
2023-05-19T10:23:02.679Z,31.4286
2023-05-19T10:24:02.717Z,31.6429
2023-05-19T10:25:02.752Z,31.2857
2023-05-19T10:26:02.767Z,31.5714
2023-05-19T10:27:02.777Z,31.5
2023-05-19T10:28:02.810Z,32.1429
2023-05-19T10:29:02.821Z,32.1429
2023-05-19T10:30:02.844Z,31.5
2023-05-19T10:31:02.891Z,31.6429
2023-05-19T10:32:02.964Z,31.8571
2023-05-19T10:33:02.949Z,32.9286
2023-05-19T10:34:02.934Z,33.1429
2023-05-19T10:35:02.944Z,31.7857
2023-05-19T10:36:02.960Z,30.5714
2023-05-19T10:37:02.976Z,30.5
2023-05-19T10:38:02.996Z,30.3571
2023-05-19T10:39:02.994Z,30.1429
2023-05-19T10:40:03.008Z,30.5
2023-05-19T10:41:03.015Z,30
2023-05-19T10:42:03.026Z,29.7143
2023-05-19T10:43:03.031Z,30.0714
2023-05-19T10:44:03.062Z,29.9286
2023-05-19T10:45:03.086Z,30.3571
2023-05-19T10:46:02.109Z,29.2143
2023-05-19T10:47:02.246Z,29.2143
2023-05-19T10:48:02.260Z,29.3571
2023-05-19T10:49:02.185Z,29.2143
2023-05-19T10:50:02.209Z,29.2857
2023-05-19T10:51:02.243Z,30.5
2023-05-19T10:52:02.268Z,30.9286
2023-05-19T10:53:02.293Z,30.2143
2023-05-19T10:54:02.307Z,28.9286
2023-05-19T10:55:02.330Z,29.2857
2023-05-19T10:56:02.359Z,29.1429
2023-05-19T10:57:02.373Z,29.3571
2023-05-19T10:58:02.417Z,29.5
2023-05-19T10:59:02.421Z,29.6429
2023-05-19T11:00:02.452Z,29.8571
2023-05-19T11:01:02.463Z,30.4286
2023-05-19T11:02:02.527Z,30.5714
2023-05-19T11:03:02.562Z,30.2143
2023-05-19T11:04:02.524Z,31
2023-05-19T11:05:02.517Z,30.9286
2023-05-19T11:06:02.524Z,31
2023-05-19T11:07:02.545Z,30.9286
2023-05-19T11:08:02.606Z,30.9286
2023-05-19T11:09:02.575Z,31
2023-05-19T11:10:02.575Z,30.8571
2023-05-19T11:11:02.592Z,30.7143
2023-05-19T11:12:02.645Z,30.8571
2023-05-19T11:13:02.650Z,30.8571
2023-05-19T11:14:02.677Z,30.9286
2023-05-19T11:15:02.698Z,30.5714
2023-05-19T11:16:02.724Z,30.8571
2023-05-19T11:17:02.897Z,31.1429
2023-05-19T11:18:02.809Z,30.2143
2023-05-19T11:19:02.874Z,30.4286
2023-05-19T11:20:02.828Z,30.3571
2023-05-19T11:21:02.906Z,30.2143
2023-05-19T11:22:02.864Z,30.5
2023-05-19T11:23:02.898Z,30.7143
2023-05-19T11:24:02.967Z,30.2143
2023-05-19T11:25:02.926Z,30.7857
2023-05-19T11:26:02.942Z,31.2143
2023-05-19T11:27:02.973Z,31.2143
2023-05-19T11:28:03.001Z,31.4286
2023-05-19T11:29:03.011Z,31.3571
2023-05-19T11:30:03.038Z,31
2023-05-19T11:31:03.044Z,30.7143
2023-05-19T11:32:03.085Z,31.0714
2023-05-19T11:33:03.194Z,30.5714
2023-05-19T11:34:03.076Z,30.2143
2023-05-19T11:35:03.092Z,30.7857
2023-05-19T11:36:03.132Z,30.8571
2023-05-19T11:37:03.102Z,31.0714
2023-05-19T11:38:03.105Z,30.9286
2023-05-19T11:39:03.130Z,31
2023-05-19T11:40:03.161Z,31.0714
2023-05-19T11:41:03.189Z,31.7143
2023-05-19T11:42:03.203Z,31.7143
2023-05-19T11:43:03.231Z,31.5
2023-05-19T11:44:03.246Z,31.3571
2023-05-19T11:45:03.270Z,31.6429
2023-05-19T11:46:03.412Z,30.5714
2023-05-19T11:47:03.350Z,30.7143
2023-05-19T11:48:03.640Z,30.8571
2023-05-19T11:49:03.366Z,31.2857
2023-05-19T11:50:03.386Z,31
2023-05-19T11:51:03.397Z,31.2143
2023-05-19T11:52:03.425Z,30.8571
2023-05-19T11:53:03.443Z,30.5714
2023-05-19T11:54:03.481Z,30.5714
2023-05-19T11:55:03.478Z,31.2143
2023-05-19T11:56:03.481Z,31.6429
2023-05-19T11:57:03.515Z,31.5
2023-05-19T11:58:05.083Z,31.0714
2023-05-19T11:59:03.521Z,31.5714
2023-05-19T12:00:03.528Z,31.7143
2023-05-19T12:01:03.524Z,31.5714
2023-05-19T12:02:03.558Z,31.0714
2023-05-19T12:03:03.619Z,31.1429
2023-05-19T12:04:03.626Z,31.3571
2023-05-19T12:05:03.709Z,31.5714
2023-05-19T12:06:03.723Z,31.6429
2023-05-19T12:07:03.687Z,31.5714
2023-05-19T12:08:03.708Z,31.2857
2023-05-19T12:09:03.729Z,31.0714
2023-05-19T12:10:03.771Z,31.6429
2023-05-19T12:11:03.791Z,31.1429
2023-05-19T12:12:03.828Z,31.2857
2023-05-19T12:13:03.829Z,31.5714
2023-05-19T12:14:03.848Z,31.0714
2023-05-19T12:15:03.871Z,31.1429
2023-05-19T12:16:03.931Z,31.0714
2023-05-19T12:17:03.898Z,30.8571
2023-05-19T12:18:04.048Z,31.1429
2023-05-19T12:19:03.961Z,31.3571
2023-05-19T12:20:03.946Z,31
2023-05-19T12:21:03.957Z,31.1429